createdAt,value
2023-02-19T00:01:46.086Z,23.32
2023-02-19T00:04:16.813Z,23.26
2023-02-19T00:06:44.994Z,23.26
2023-02-19T00:09:13.550Z,23.17
2023-02-19T00:11:41.408Z,23.19
2023-02-19T00:14:09.126Z,23.21
2023-02-19T00:16:37.816Z,23.17
2023-02-19T00:19:07.037Z,23.17
2023-02-19T00:21:35.584Z,23.12
2023-02-19T00:24:05.976Z,23.14
2023-02-19T00:26:33.905Z,23.15
2023-02-19T00:29:01.838Z,23.09
2023-02-19T00:31:32.773Z,23.14
2023-02-19T00:34:03.074Z,23.14
2023-02-19T00:36:31.229Z,23.14
2023-02-19T00:38:59.628Z,23.16
2023-02-19T00:41:27.378Z,23.12
2023-02-19T00:43:56.300Z,23.19
2023-02-19T00:46:25.263Z,23.26
2023-02-19T00:48:53.041Z,23.28
2023-02-19T00:51:20.982Z,23.27
2023-02-19T00:53:48.230Z,23.22
2023-02-19T00:56:16.688Z,23.19
2023-02-19T00:58:43.809Z,23.12
2023-02-19T01:01:11.641Z,23.19
2023-02-19T01:03:39.598Z,23.15
2023-02-19T01:06:09.151Z,23.13
2023-02-19T01:08:37.102Z,23.11
2023-02-19T01:11:06.018Z,22.91
2023-02-19T01:13:34.965Z,22.99
2023-02-19T01:16:06.494Z,23.08
2023-02-19T01:18:34.385Z,23.03
2023-02-19T01:21:05.775Z,23.04
2023-02-19T01:23:33.103Z,23.09
2023-02-19T01:26:00.224Z,23.14
2023-02-19T01:28:27.408Z,23.16
2023-02-19T01:30:55.831Z,23.13
2023-02-19T01:33:22.929Z,23.12
2023-02-19T01:35:50.155Z,23.20
2023-02-19T01:38:17.234Z,23.21
2023-02-19T01:40:44.322Z,23.22
2023-02-19T01:43:16.001Z,23.21
2023-02-19T01:45:44.203Z,23.14
2023-02-19T01:48:17.466Z,23.14
2023-02-19T01:50:48.823Z,23.06
2023-02-19T01:53:20.765Z,23.10
2023-02-19T01:55:52.803Z,23.06
2023-02-19T01:58:20.181Z,23.06
2023-02-19T02:00:47.853Z,23.07
2023-02-19T02:03:16.297Z,23.06
2023-02-19T02:05:53.522Z,23.05
2023-02-19T02:08:20.878Z,23.03
2023-02-19T02:10:48.469Z,22.98
2023-02-19T02:13:15.902Z,23.05
2023-02-19T02:15:51.605Z,23.07
2023-02-19T02:18:31.290Z,23.08
2023-02-19T02:21:11.830Z,23.09
2023-02-19T02:23:54.767Z,23.05
2023-02-19T02:26:32.472Z,23.13
2023-02-19T02:29:30.779Z,23.19
2023-02-19T02:32:05.140Z,23.21
2023-02-19T02:34:41.298Z,23.16
2023-02-19T02:37:09.990Z,23.08
2023-02-19T02:39:38.789Z,23.08
2023-02-19T02:42:06.010Z,23.07
2023-02-19T02:44:34.799Z,23.06
2023-02-19T02:47:06.500Z,23.05
2023-02-19T02:49:35.335Z,23.04
2023-02-19T02:52:02.702Z,22.99
2023-02-19T02:54:33.507Z,23.01
2023-02-19T02:57:01.800Z,23.05
2023-02-19T02:59:33.806Z,23.02
2023-02-19T03:02:06.179Z,22.99
2023-02-19T03:04:42.601Z,23.04
2023-02-19T03:07:10.422Z,23.08
2023-02-19T03:09:41.513Z,23.10
2023-02-19T03:12:13.197Z,23.06
2023-02-19T03:14:44.772Z,23.07
2023-02-19T03:17:19.048Z,23.09
2023-02-19T03:19:52.620Z,23.15
2023-02-19T03:22:24.538Z,23.16
2023-02-19T03:24:56.353Z,23.14
2023-02-19T03:27:26.343Z,23.13
2023-02-19T03:29:55.021Z,23.10
2023-02-19T03:32:29.701Z,23.07
2023-02-19T03:35:00.882Z,23.07
2023-02-19T03:37:32.610Z,23.03
2023-02-19T03:39:59.738Z,23.04
2023-02-19T03:42:36.129Z,23.03
2023-02-19T03:45:17.679Z,22.91
2023-02-19T03:47:52.473Z,22.99
2023-02-19T03:50:24.334Z,22.97
2023-02-19T03:52:59.457Z,22.98
2023-02-19T03:55:32.083Z,22.98
2023-02-19T03:58:06.768Z,22.95
2023-02-19T04:00:40.518Z,23.03
2023-02-19T04:03:17.734Z,23.03
2023-02-19T04:05:48.618Z,23.04
2023-02-19T04:08:19.146Z,23.05
2023-02-19T04:10:47.480Z,23.11
2023-02-19T04:13:19.920Z,23.12
2023-02-19T04:15:49.565Z,23.08
2023-02-19T04:18:22.536Z,23.10
2023-02-19T04:20:50.609Z,23.07
2023-02-19T04:23:22.210Z,23.07
2023-02-19T04:25:54.988Z,23.02
2023-02-19T04:28:22.246Z,23.01
2023-02-19T04:30:49.450Z,23.02
2023-02-19T04:33:18.005Z,22.97
2023-02-19T04:35:45.097Z,22.93
2023-02-19T04:38:12.215Z,22.94
2023-02-19T04:40:39.294Z,22.93
2023-02-19T04:43:06.387Z,22.81
2023-02-19T04:45:33.596Z,22.95
2023-02-19T04:48:00.672Z,22.96
2023-02-19T04:50:29.117Z,22.99
2023-02-19T04:52:56.208Z,23.00
2023-02-19T04:55:23.320Z,22.97
2023-02-19T04:57:50.386Z,23.00
2023-02-19T05:00:17.511Z,23.05
2023-02-19T05:02:44.637Z,23.10
2023-02-19T05:05:11.768Z,23.11
2023-02-19T05:07:40.232Z,23.09
2023-02-19T05:10:07.895Z,23.06
2023-02-19T05:12:34.962Z,23.06
2023-02-19T05:15:02.037Z,23.02
2023-02-19T05:17:29.150Z,23.00
2023-02-19T05:19:56.230Z,23.05
2023-02-19T05:22:23.316Z,23.06
2023-02-19T05:24:51.758Z,22.99
2023-02-19T05:27:18.826Z,22.97
2023-02-19T05:29:46.024Z,22.97
2023-02-19T05:32:13.240Z,23.05
2023-02-19T05:34:40.339Z,23.03
2023-02-19T05:37:07.401Z,23.03
2023-02-19T05:39:34.520Z,22.99
2023-02-19T05:42:03.188Z,22.99
2023-02-19T05:44:30.262Z,22.98
2023-02-19T05:46:57.385Z,22.99
2023-02-19T05:49:24.458Z,23.06
2023-02-19T05:51:51.576Z,23.07
2023-02-19T05:54:18.679Z,23.10
2023-02-19T05:56:45.902Z,23.09
2023-02-19T05:59:18.390Z,23.11
2023-02-19T06:01:45.980Z,23.09
2023-02-19T06:04:14.135Z,23.07
2023-02-19T06:06:42.487Z,23.15
2023-02-19T06:09:10.405Z,23.10
2023-02-19T06:11:37.700Z,23.22
2023-02-19T06:14:05.468Z,23.36
2023-02-19T06:16:33.862Z,23.56
2023-02-19T06:19:02.467Z,23.68
2023-02-19T06:21:29.579Z,23.97
2023-02-19T06:23:56.832Z,23.92
2023-02-19T06:26:24.945Z,23.98
2023-02-19T06:28:53.317Z,24.01
2023-02-19T06:31:21.932Z,24.12
2023-02-19T06:33:50.501Z,24.18
2023-02-19T06:36:20.187Z,24.11
2023-02-19T06:38:47.502Z,24.09
2023-02-19T06:41:14.998Z,24.08
2023-02-19T06:43:42.252Z,24.12
2023-02-19T06:46:12.024Z,24.15
2023-02-19T06:48:40.627Z,24.10
2023-02-19T06:51:11.935Z,24.09
2023-02-19T06:53:39.142Z,24.03
2023-02-19T06:56:08.244Z,23.99
2023-02-19T06:58:35.378Z,23.95
2023-02-19T07:01:03.007Z,23.91
2023-02-19T07:03:30.124Z,23.91
2023-02-19T07:05:59.410Z,23.87
2023-02-19T07:08:29.577Z,23.88
2023-02-19T07:10:58.360Z,23.91
2023-02-19T07:13:26.769Z,23.81
2023-02-19T07:15:59.007Z,23.80
2023-02-19T07:18:26.429Z,23.80
2023-02-19T07:20:53.606Z,23.82
2023-02-19T07:23:20.719Z,23.75
2023-02-19T07:25:49.301Z,23.82
2023-02-19T07:28:16.373Z,23.85
2023-02-19T07:30:43.478Z,23.92
2023-02-19T07:33:10.861Z,23.95
2023-02-19T07:35:38.030Z,23.91
2023-02-19T07:38:05.097Z,23.96
2023-02-19T07:40:32.232Z,23.86
2023-02-19T07:43:00.771Z,23.90
2023-02-19T07:45:27.908Z,23.94
2023-02-19T07:47:55.030Z,23.83
2023-02-19T07:50:22.132Z,23.91
2023-02-19T07:52:49.197Z,23.88
2023-02-19T07:55:16.481Z,23.87
2023-02-19T07:57:43.613Z,23.83
2023-02-19T08:00:13.646Z,23.74
2023-02-19T08:02:40.951Z,23.67
2023-02-19T08:05:08.293Z,23.69
2023-02-19T08:07:36.420Z,23.61
2023-02-19T08:10:04.743Z,23.55
2023-02-19T08:12:31.849Z,23.63
2023-02-19T08:14:58.973Z,23.65
2023-02-19T08:17:27.653Z,23.67
2023-02-19T08:19:54.828Z,23.73
2023-02-19T08:22:21.914Z,23.75
2023-02-19T08:24:49.153Z,23.73
2023-02-19T08:27:16.353Z,23.69
2023-02-19T08:29:43.432Z,23.71
2023-02-19T08:32:10.624Z,23.68
2023-02-19T08:34:39.220Z,23.16
2023-02-19T08:37:06.411Z,23.68
2023-02-19T08:39:33.703Z,23.64
2023-02-19T08:42:00.785Z,23.65
2023-02-19T08:44:27.839Z,23.62
2023-02-19T08:46:54.951Z,23.65
2023-02-19T08:49:25.453Z,23.58
2023-02-19T08:51:53.879Z,23.59
2023-02-19T08:54:20.991Z,23.53
2023-02-19T08:56:48.080Z,23.55
2023-02-19T08:59:15.146Z,23.57
2023-02-19T09:01:42.272Z,23.51
2023-02-19T09:04:11.843Z,23.31
2023-02-19T09:06:40.154Z,23.09
2023-02-19T09:09:08.792Z,22.95
2023-02-19T09:11:38.867Z,22.85
2023-02-19T09:14:05.981Z,22.72
2023-02-19T09:16:33.123Z,22.70
2023-02-19T09:19:00.204Z,22.62
2023-02-19T09:21:27.464Z,22.58
2023-02-19T09:23:54.542Z,22.73
2023-02-19T09:26:22.990Z,22.82
2023-02-19T09:28:50.061Z,22.96
2023-02-19T09:31:17.340Z,23.03
2023-02-19T09:33:45.026Z,23.13
2023-02-19T09:36:13.114Z,23.54
2023-02-19T09:38:40.260Z,23.88
2023-02-19T09:41:10.168Z,24.01
2023-02-19T09:43:38.828Z,24.31
2023-02-19T09:46:15.003Z,24.40
2023-02-19T09:48:42.145Z,24.44
2023-02-19T09:51:11.022Z,24.43
2023-02-19T09:53:43.907Z,24.33
2023-02-19T09:56:10.989Z,24.38
2023-02-19T09:58:46.207Z,24.32
2023-02-19T10:01:13.786Z,24.33
2023-02-19T10:03:44.878Z,24.31
2023-02-19T10:06:17.998Z,24.34
2023-02-19T10:08:46.346Z,24.29
2023-02-19T10:11:14.216Z,24.29
2023-02-19T10:13:45.854Z,24.28
2023-02-19T10:16:17.492Z,24.28
2023-02-19T10:18:45.943Z,24.28
2023-02-19T10:21:17.390Z,24.31
2023-02-19T10:23:44.610Z,24.29
2023-02-19T10:26:11.821Z,24.22
2023-02-19T10:28:39.257Z,24.29
2023-02-19T10:31:18.368Z,24.15
2023-02-19T10:33:50.829Z,24.06
2023-02-19T10:36:26.334Z,23.95
2023-02-19T10:38:54.485Z,23.88
2023-02-19T10:41:24.514Z,23.90
2023-02-19T10:43:56.335Z,23.90
2023-02-19T10:46:27.917Z,23.93
2023-02-19T10:48:58.130Z,23.92
2023-02-19T10:51:32.147Z,23.86
2023-02-19T10:54:07.722Z,23.90
2023-02-19T10:56:35.054Z,23.92
2023-02-19T10:59:21.050Z,23.93
2023-02-19T11:02:00.201Z,23.63
2023-02-19T11:04:28.891Z,23.73
2023-02-19T11:06:56.162Z,23.79
2023-02-19T11:09:27.961Z,23.81
2023-02-19T11:11:57.231Z,23.80
2023-02-19T11:14:25.669Z,23.77
2023-02-19T11:16:55.071Z,23.70
2023-02-19T11:19:27.815Z,23.74
2023-02-19T11:21:55.672Z,23.69
2023-02-19T11:24:28.663Z,23.69
2023-02-19T11:26:56.672Z,23.68
2023-02-19T11:29:25.557Z,23.65
2023-02-19T11:31:52.920Z,23.64
2023-02-19T11:34:29.694Z,23.70
2023-02-19T11:37:12.197Z,23.69
2023-02-19T11:39:42.251Z,23.68
2023-02-19T11:42:29.605Z,23.62
2023-02-19T11:45:22.868Z,23.57
2023-02-19T11:48:08.271Z,23.61
2023-02-19T11:51:02.298Z,23.52
2023-02-19T11:53:32.384Z,23.53
2023-02-19T11:56:10.859Z,23.49
2023-02-19T11:59:00.839Z,23.52
2023-02-19T12:01:51.013Z,23.52
2023-02-19T12:04:47.366Z,23.47
2023-02-19T12:07:29.050Z,23.43
2023-02-19T12:10:07.926Z,23.45
2023-02-19T12:12:46.358Z,23.45
2023-02-19T12:15:27.029Z,23.44
2023-02-19T12:18:23.621Z,23.44
2023-02-19T12:21:06.150Z,23.42
2023-02-19T12:24:01.255Z,23.50
2023-02-19T12:26:30.624Z,23.50
2023-02-19T12:29:17.656Z,23.56
2023-02-19T12:32:29.309Z,23.52
2023-02-19T12:35:30.337Z,23.51
2023-02-19T12:38:06.740Z,23.52
2023-02-19T12:40:50.204Z,23.51
2023-02-19T12:43:19.538Z,23.52
2023-02-19T12:45:52.530Z,23.49
2023-02-19T12:48:29.484Z,23.49
2023-02-19T12:51:02.777Z,23.46
2023-02-19T12:53:40.096Z,23.42
2023-02-19T12:56:14.700Z,23.38
2023-02-19T12:58:47.627Z,23.37
2023-02-19T13:01:22.043Z,23.34
2023-02-19T13:03:52.998Z,23.37
2023-02-19T13:06:33.852Z,23.43
2023-02-19T13:09:07.209Z,23.49
2023-02-19T13:11:41.747Z,23.46
2023-02-19T13:14:20.235Z,23.49
2023-02-19T13:16:52.664Z,23.50
2023-02-19T13:19:19.878Z,23.53
2023-02-19T13:21:52.686Z,23.54
2023-02-19T13:24:23.646Z,23.56
2023-02-19T13:27:04.163Z,23.61
2023-02-19T13:29:47.780Z,23.59
2023-02-19T13:32:39.110Z,23.59
2023-02-19T13:35:25.672Z,23.62
2023-02-19T13:37:54.700Z,23.56
2023-02-19T13:40:30.675Z,23.57
2023-02-19T13:43:02.280Z,23.52
2023-02-19T13:45:35.292Z,23.51
2023-02-19T13:48:15.249Z,23.50
2023-02-19T13:50:42.395Z,23.47
2023-02-19T13:53:49.336Z,23.55
2023-02-19T13:56:38.386Z,23.63
2023-02-19T13:59:25.218Z,23.63
2023-02-19T14:02:10.847Z,23.60
2023-02-19T14:04:52.353Z,23.55
2023-02-19T14:07:47.335Z,23.56
2023-02-19T14:10:55.355Z,23.63
2023-02-19T14:13:56.063Z,23.73
2023-02-19T14:16:56.840Z,23.75
2023-02-19T14:19:47.841Z,23.73
2023-02-19T14:22:47.418Z,23.75
2023-02-19T14:25:28.909Z,23.71
2023-02-19T14:28:01.884Z,23.68
2023-02-19T14:30:31.271Z,23.73
2023-02-19T14:33:10.356Z,23.76
2023-02-19T14:35:40.747Z,23.82
2023-02-19T14:38:16.646Z,23.81
2023-02-19T14:40:46.405Z,23.86
2023-02-19T14:43:16.422Z,23.89
2023-02-19T14:45:47.520Z,23.93
2023-02-19T14:48:21.742Z,23.75
2023-02-19T14:50:55.773Z,23.92
2023-02-19T14:53:24.502Z,23.89
2023-02-19T14:55:52.872Z,23.87
2023-02-19T14:58:24.392Z,23.77
2023-02-19T15:00:51.578Z,23.77
2023-02-19T15:03:32.725Z,23.74
2023-02-19T15:06:04.084Z,23.72
2023-02-19T15:08:35.795Z,23.71
2023-02-19T15:11:08.030Z,23.73
2023-02-19T15:13:35.429Z,23.69
2023-02-19T15:16:02.629Z,23.67
2023-02-19T15:18:31.207Z,23.67
2023-02-19T15:21:00.913Z,23.72
2023-02-19T15:23:29.892Z,23.70
2023-02-19T15:25:58.350Z,23.62
2023-02-19T15:28:32.343Z,23.78
2023-02-19T15:31:20.546Z,23.83
2023-02-19T15:33:52.738Z,23.87
2023-02-19T15:36:32.111Z,23.72
2023-02-19T15:39:01.825Z,23.73
2023-02-19T15:41:33.316Z,23.72
2023-02-19T15:44:15.681Z,23.14
2023-02-19T15:46:44.470Z,22.39
2023-02-19T15:49:18.102Z,22.33
2023-02-19T15:51:52.229Z,22.55
2023-02-19T15:54:27.174Z,22.80
2023-02-19T15:56:57.445Z,23.05
2023-02-19T15:59:31.087Z,22.99
2023-02-19T16:01:59.718Z,23.16
2023-02-19T16:04:28.286Z,23.27
2023-02-19T16:06:58.164Z,23.27
2023-02-19T16:09:30.077Z,23.39
2023-02-19T16:11:58.853Z,23.45
2023-02-19T16:14:30.467Z,23.50
2023-02-19T16:17:04.215Z,23.63
2023-02-19T16:19:42.490Z,23.59
2023-02-19T16:22:11.284Z,23.63
2023-02-19T16:24:42.829Z,23.60
2023-02-19T16:27:09.982Z,23.54
2023-02-19T16:29:38.280Z,23.40
2023-02-19T16:32:07.632Z,23.46
2023-02-19T16:34:40.510Z,23.50
2023-02-19T16:37:46.043Z,23.43
2023-02-19T16:40:46.615Z,23.44
2023-02-19T16:43:29.451Z,23.40
2023-02-19T16:45:57.292Z,23.43
2023-02-19T16:48:24.465Z,23.37
2023-02-19T16:50:53.141Z,23.32
2023-02-19T16:53:21.518Z,23.26
2023-02-19T16:55:48.610Z,23.22
2023-02-19T16:58:15.731Z,23.19
2023-02-19T17:00:43.127Z,23.17
2023-02-19T17:03:13.673Z,23.19
2023-02-19T17:05:41.709Z,23.23
2023-02-19T17:08:25.334Z,23.24
2023-02-19T17:10:54.060Z,23.21
2023-02-19T17:13:22.928Z,23.21
2023-02-19T17:15:50.047Z,23.21
2023-02-19T17:18:17.251Z,23.19
2023-02-19T17:20:48.314Z,23.24
2023-02-19T17:23:16.753Z,23.23
2023-02-19T17:25:43.815Z,23.24
2023-02-19T17:28:10.905Z,23.22
2023-02-19T17:30:40.129Z,23.25
2023-02-19T17:33:07.590Z,23.18
2023-02-19T17:35:34.700Z,23.18
2023-02-19T17:38:01.797Z,23.15
2023-02-19T17:40:33.746Z,23.15
2023-02-19T17:43:01.433Z,23.16
2023-02-19T17:45:28.583Z,23.15
2023-02-19T17:47:55.671Z,23.16
2023-02-19T17:50:25.220Z,23.21
2023-02-19T17:52:52.343Z,23.25
2023-02-19T17:55:19.679Z,23.29
2023-02-19T17:57:49.988Z,23.31
2023-02-19T18:00:19.214Z,23.22
2023-02-19T18:02:46.338Z,23.25
2023-02-19T18:05:13.523Z,23.26
2023-02-19T18:07:40.596Z,23.32
2023-02-19T18:10:08.455Z,23.30
2023-02-19T18:12:35.606Z,23.24
2023-02-19T18:15:04.632Z,23.23
2023-02-19T18:17:31.694Z,23.22
2023-02-19T18:19:58.792Z,23.26
2023-02-19T18:22:25.886Z,23.32
2023-02-19T18:24:54.753Z,23.33
2023-02-19T18:27:21.856Z,23.39
2023-02-19T18:29:49.847Z,23.50
2023-02-19T18:32:19.677Z,23.54
2023-02-19T18:34:49.097Z,23.61
2023-02-19T18:37:16.256Z,23.65
2023-02-19T18:39:43.356Z,23.68
2023-02-19T18:42:10.546Z,23.70
2023-02-19T18:44:38.085Z,23.78
2023-02-19T18:47:06.147Z,23.81
2023-02-19T18:49:34.697Z,23.83
2023-02-19T18:52:01.794Z,23.83
2023-02-19T18:54:29.594Z,23.87
2023-02-19T18:56:57.525Z,23.83
2023-02-19T18:59:24.700Z,23.84
2023-02-19T19:01:51.971Z,23.89
2023-02-19T19:04:19.208Z,23.87
2023-02-19T19:06:47.681Z,23.87
2023-02-19T19:09:14.953Z,23.91
2023-02-19T19:11:42.058Z,23.80
2023-02-19T19:14:09.127Z,23.88
2023-02-19T19:16:36.213Z,23.78
2023-02-19T19:19:03.644Z,23.71
2023-02-19T19:21:30.981Z,23.72
2023-02-19T19:23:59.611Z,23.64
2023-02-19T19:26:26.940Z,23.69
2023-02-19T19:28:54.032Z,23.91
2023-02-19T19:31:22.123Z,24.05
2023-02-19T19:33:49.280Z,24.16
2023-02-19T19:36:20.038Z,24.06
2023-02-19T19:38:47.165Z,24.12
2023-02-19T19:41:16.272Z,24.11
2023-02-19T19:43:43.503Z,24.04
2023-02-19T19:46:10.742Z,23.95
2023-02-19T19:48:39.479Z,23.94
2023-02-19T19:51:06.589Z,23.94
2023-02-19T19:53:33.739Z,23.85
2023-02-19T19:56:01.032Z,23.88
2023-02-19T19:58:29.506Z,23.86
2023-02-19T20:00:57.008Z,23.75
2023-02-19T20:03:24.129Z,23.62
2023-02-19T20:05:51.326Z,23.59
2023-02-19T20:08:18.629Z,23.60
2023-02-19T20:10:45.993Z,23.57
2023-02-19T20:13:16.124Z,23.63
2023-02-19T20:15:44.693Z,23.66
2023-02-19T20:18:12.248Z,23.67
2023-02-19T20:20:39.338Z,23.65
2023-02-19T20:23:06.412Z,23.63
2023-02-19T20:25:33.511Z,23.59
2023-02-19T20:28:00.592Z,23.53
2023-02-19T20:30:27.918Z,23.58
2023-02-19T20:32:56.492Z,23.58
2023-02-19T20:35:25.691Z,23.53
2023-02-19T20:37:53.505Z,23.54
2023-02-19T20:40:20.726Z,23.54
2023-02-19T20:42:47.886Z,23.51
2023-02-19T20:45:15.085Z,23.49
2023-02-19T20:47:42.315Z,23.48
2023-02-19T20:50:11.927Z,23.48
2023-02-19T20:52:39.122Z,23.53
2023-02-19T20:55:07.305Z,23.51
2023-02-19T20:57:34.378Z,23.52
2023-02-19T21:00:01.465Z,23.53
2023-02-19T21:02:28.618Z,23.54
2023-02-19T21:04:55.968Z,23.54
2023-02-19T21:07:25.051Z,23.50
2023-02-19T21:09:52.344Z,23.57
2023-02-19T21:12:19.532Z,23.55
2023-02-19T21:14:46.732Z,23.53
2023-02-19T21:17:13.900Z,23.52
2023-02-19T21:19:41.186Z,23.49
2023-02-19T21:22:08.330Z,23.48
2023-02-19T21:24:36.825Z,23.47
2023-02-19T21:27:04.252Z,23.45
2023-02-19T21:29:31.325Z,23.46
2023-02-19T21:31:58.578Z,23.44
2023-02-19T21:34:27.379Z,23.37
2023-02-19T21:36:55.255Z,23.37
2023-02-19T21:39:24.216Z,23.36
2023-02-19T21:41:52.736Z,23.37
2023-02-19T21:44:20.333Z,23.39
2023-02-19T21:46:47.563Z,23.36
2023-02-19T21:49:14.799Z,23.40
2023-02-19T21:51:43.725Z,23.43
2023-02-19T21:54:15.691Z,23.37
2023-02-19T21:56:43.084Z,23.45
2023-02-19T21:59:11.517Z,23.46
2023-02-19T22:01:40.047Z,23.42
2023-02-19T22:04:08.849Z,23.43
2023-02-19T22:06:36.054Z,23.39
2023-02-19T22:09:03.220Z,23.43
2023-02-19T22:11:30.330Z,23.39
2023-02-19T22:13:57.632Z,23.36
2023-02-19T22:16:26.536Z,23.36
2023-02-19T22:18:55.315Z,23.34
2023-02-19T22:21:24.648Z,23.33
2023-02-19T22:23:53.619Z,23.28
2023-02-19T22:26:22.775Z,23.25
2023-02-19T22:28:50.092Z,23.27
2023-02-19T22:31:18.496Z,23.23
2023-02-19T22:33:47.184Z,23.29
2023-02-19T22:36:15.469Z,23.32
2023-02-19T22:38:42.656Z,23.23
2023-02-19T22:41:10.176Z,23.37
2023-02-19T22:43:37.479Z,23.37
2023-02-19T22:46:08.538Z,23.33
2023-02-19T22:48:35.625Z,23.35
2023-02-19T22:51:04.309Z,23.31
2023-02-19T22:53:31.391Z,23.32
2023-02-19T22:55:58.456Z,23.32
2023-02-19T22:58:25.526Z,23.35
2023-02-19T23:00:52.656Z,23.30
2023-02-19T23:03:19.744Z,23.29
2023-02-19T23:05:46.810Z,23.28
2023-02-19T23:08:15.233Z,23.30
2023-02-19T23:10:42.315Z,23.27
2023-02-19T23:13:09.433Z,23.22
2023-02-19T23:15:36.532Z,23.21
2023-02-19T23:18:03.849Z,23.20
2023-02-19T23:20:31.199Z,23.13
2023-02-19T23:22:58.316Z,23.23
2023-02-19T23:25:26.910Z,23.23
2023-02-19T23:27:53.997Z,23.28
2023-02-19T23:30:21.228Z,23.27
2023-02-19T23:32:48.330Z,23.33
2023-02-19T23:35:15.536Z,23.27
2023-02-19T23:37:42.643Z,23.29
2023-02-19T23:40:11.366Z,23.28
2023-02-19T23:42:39.763Z,23.26
2023-02-19T23:45:07.500Z,23.25
2023-02-19T23:47:34.589Z,23.24
2023-02-19T23:50:01.674Z,23.25
2023-02-19T23:52:28.760Z,23.25
2023-02-19T23:54:55.901Z,23.23
2023-02-19T23:57:22.983Z,23.21
2023-02-19T23:59:51.439Z,23.17
